sensor_id;sensor_type;location;lat;lon;timestamp;P1;durP1;ratioP1;P2;durP2;ratioP2
17177;SDS011;8704;52.006;4.374;2023-04-15T00:01:54;9.07;;;4.07;;
17177;SDS011;8704;52.006;4.374;2023-04-15T00:04:25;8.82;;;4.55;;
17177;SDS011;8704;52.006;4.374;2023-04-15T00:06:54;11.35;;;4.70;;
17177;SDS011;8704;52.006;4.374;2023-04-15T00:09:23;9.00;;;4.50;;
17177;SDS011;8704;52.006;4.374;2023-04-15T00:11:51;7.88;;;4.40;;
17177;SDS011;8704;52.006;4.374;2023-04-15T00:14:19;12.55;;;5.00;;
17177;SDS011;8704;52.006;4.374;2023-04-15T00:16:47;10.25;;;4.85;;
17177;SDS011;8704;52.006;4.374;2023-04-15T00:19:20;9.82;;;4.90;;
17177;SDS011;8704;52.006;4.374;2023-04-15T00:21:48;12.05;;;5.13;;
17177;SDS011;8704;52.006;4.374;2023-04-15T00:24:17;8.70;;;4.97;;
17177;SDS011;8704;52.006;4.374;2023-04-15T00:26:46;9.75;;;4.68;;
17177;SDS011;8704;52.006;4.374;2023-04-15T00:29:14;10.13;;;4.88;;
17177;SDS011;8704;52.006;4.374;2023-04-15T00:31:42;13.30;;;5.68;;
17177;SDS011;8704;52.006;4.374;2023-04-15T00:34:11;12.38;;;5.18;;
17177;SDS011;8704;52.006;4.374;2023-04-15T00:36:39;8.52;;;4.55;;
17177;SDS011;8704;52.006;4.374;2023-04-15T00:39:07;8.90;;;5.05;;
17177;SDS011;8704;52.006;4.374;2023-04-15T00:41:35;10.55;;;5.47;;
17177;SDS011;8704;52.006;4.374;2023-04-15T00:44:06;9.68;;;4.93;;
17177;SDS011;8704;52.006;4.374;2023-04-15T00:46:34;9.63;;;5.80;;
17177;SDS011;8704;52.006;4.374;2023-04-15T00:49:04;9.18;;;5.35;;
17177;SDS011;8704;52.006;4.374;2023-04-15T00:51:33;10.25;;;5.50;;
17177;SDS011;8704;52.006;4.374;2023-04-15T00:54:02;10.18;;;5.80;;
17177;SDS011;8704;52.006;4.374;2023-04-15T00:56:32;11.82;;;5.88;;
17177;SDS011;8704;52.006;4.374;2023-04-15T00:59:03;9.07;;;5.65;;
17177;SDS011;8704;52.006;4.374;2023-04-15T01:01:34;13.43;;;5.72;;
17177;SDS011;8704;52.006;4.374;2023-04-15T01:04:03;12.88;;;5.43;;
17177;SDS011;8704;52.006;4.374;2023-04-15T01:06:32;11.35;;;5.68;;
17177;SDS011;8704;52.006;4.374;2023-04-15T01:09:00;9.77;;;5.60;;
17177;SDS011;8704;52.006;4.374;2023-04-15T01:11:28;12.80;;;6.20;;
17177;SDS011;8704;52.006;4.374;2023-04-15T01:13:58;8.55;;;5.25;;
17177;SDS011;8704;52.006;4.374;2023-04-15T01:16:26;12.02;;;6.03;;
17177;SDS011;8704;52.006;4.374;2023-04-15T01:18:56;9.70;;;5.97;;
17177;SDS011;8704;52.006;4.374;2023-04-15T01:21:24;9.82;;;6.45;;
17177;SDS011;8704;52.006;4.374;2023-04-15T01:23:53;8.43;;;6.05;;
17177;SDS011;8704;52.006;4.374;2023-04-15T01:26:25;10.43;;;5.75;;
17177;SDS011;8704;52.006;4.374;2023-04-15T01:28:53;10.05;;;5.47;;
17177;SDS011;8704;52.006;4.374;2023-04-15T01:31:21;12.50;;;6.47;;
17177;SDS011;8704;52.006;4.374;2023-04-15T01:33:49;11.32;;;5.97;;
17177;SDS011;8704;52.006;4.374;2023-04-15T01:36:18;10.90;;;6.50;;
17177;SDS011;8704;52.006;4.374;2023-04-15T01:38:46;11.40;;;5.88;;
17177;SDS011;8704;52.006;4.374;2023-04-15T01:41:14;10.50;;;6.65;;
17177;SDS011;8704;52.006;4.374;2023-04-15T01:43:43;10.30;;;6.40;;
17177;SDS011;8704;52.006;4.374;2023-04-15T01:46:11;9.50;;;6.30;;
17177;SDS011;8704;52.006;4.374;2023-04-15T01:48:40;9.68;;;5.95;;
17177;SDS011;8704;52.006;4.374;2023-04-15T01:51:08;11.88;;;6.20;;
17177;SDS011;8704;52.006;4.374;2023-04-15T01:53:36;10.38;;;5.95;;
17177;SDS011;8704;52.006;4.374;2023-04-15T01:56:04;10.55;;;6.35;;
17177;SDS011;8704;52.006;4.374;2023-04-15T01:58:33;10.60;;;6.18;;
17177;SDS011;8704;52.006;4.374;2023-04-15T02:01:04;11.32;;;6.43;;
17177;SDS011;8704;52.006;4.374;2023-04-15T02:03:32;11.38;;;6.20;;
17177;SDS011;8704;52.006;4.374;2023-04-15T02:06:00;11.13;;;6.57;;
17177;SDS011;8704;52.006;4.374;2023-04-15T02:08:29;13.27;;;6.18;;
17177;SDS011;8704;52.006;4.374;2023-04-15T02:10:57;10.75;;;6.43;;
17177;SDS011;8704;52.006;4.374;2023-04-15T02:13:26;10.73;;;6.45;;
17177;SDS011;8704;52.006;4.374;2023-04-15T02:15:55;9.02;;;6.43;;
17177;SDS011;8704;52.006;4.374;2023-04-15T02:18:25;8.90;;;6.18;;
17177;SDS011;8704;52.006;4.374;2023-04-15T02:20:53;12.52;;;6.45;;
17177;SDS011;8704;52.006;4.374;2023-04-15T02:23:22;10.63;;;6.82;;
17177;SDS011;8704;52.006;4.374;2023-04-15T02:25:50;14.18;;;7.32;;
17177;SDS011;8704;52.006;4.374;2023-04-15T02:28:19;12.75;;;6.57;;
17177;SDS011;8704;52.006;4.374;2023-04-15T02:30:47;10.20;;;6.22;;
17177;SDS011;8704;52.006;4.374;2023-04-15T02:33:18;12.30;;;7.55;;
17177;SDS011;8704;52.006;4.374;2023-04-15T02:35:48;12.30;;;6.82;;
17177;SDS011;8704;52.006;4.374;2023-04-15T02:38:16;9.80;;;6.53;;
17177;SDS011;8704;52.006;4.374;2023-04-15T02:40:44;10.50;;;6.97;;
17177;SDS011;8704;52.006;4.374;2023-04-15T02:43:14;10.60;;;6.65;;
17177;SDS011;8704;52.006;4.374;2023-04-15T02:45:44;10.82;;;6.90;;
17177;SDS011;8704;52.006;4.374;2023-04-15T02:48:12;13.35;;;7.50;;
17177;SDS011;8704;52.006;4.374;2023-04-15T02:50:43;11.95;;;7.30;;
17177;SDS011;8704;52.006;4.374;2023-04-15T02:53:13;11.52;;;6.85;;
17177;SDS011;8704;52.006;4.374;2023-04-15T02:55:41;10.75;;;6.88;;
17177;SDS011;8704;52.006;4.374;2023-04-15T02:58:09;12.07;;;6.72;;
17177;SDS011;8704;52.006;4.374;2023-04-15T03:00:37;8.25;;;6.13;;
17177;SDS011;8704;52.006;4.374;2023-04-15T03:03:05;10.18;;;6.35;;
17177;SDS011;8704;52.006;4.374;2023-04-15T03:05:33;11.30;;;7.05;;
17177;SDS011;8704;52.006;4.374;2023-04-15T03:08:04;8.65;;;6.65;;
17177;SDS011;8704;52.006;4.374;2023-04-15T03:10:34;10.50;;;6.75;;
17177;SDS011;8704;52.006;4.374;2023-04-15T03:13:02;10.38;;;6.43;;
17177;SDS011;8704;52.006;4.374;2023-04-15T03:15:31;15.27;;;7.38;;
17177;SDS011;8704;52.006;4.374;2023-04-15T03:17:59;10.02;;;6.95;;
17177;SDS011;8704;52.006;4.374;2023-04-15T03:20:27;10.60;;;6.72;;
17177;SDS011;8704;52.006;4.374;2023-04-15T03:22:55;12.93;;;7.10;;
17177;SDS011;8704;52.006;4.374;2023-04-15T03:25:23;9.35;;;6.90;;
17177;SDS011;8704;52.006;4.374;2023-04-15T03:27:53;9.77;;;7.07;;
17177;SDS011;8704;52.006;4.374;2023-04-15T03:30:21;11.13;;;6.97;;
17177;SDS011;8704;52.006;4.374;2023-04-15T03:32:49;10.45;;;7.50;;
17177;SDS011;8704;52.006;4.374;2023-04-15T03:35:17;10.27;;;6.85;;
17177;SDS011;8704;52.006;4.374;2023-04-15T03:37:46;11.10;;;7.10;;
17177;SDS011;8704;52.006;4.374;2023-04-15T03:40:14;11.38;;;6.97;;
17177;SDS011;8704;52.006;4.374;2023-04-15T03:42:42;11.85;;;7.10;;
17177;SDS011;8704;52.006;4.374;2023-04-15T03:45:11;11.48;;;6.97;;
17177;SDS011;8704;52.006;4.374;2023-04-15T03:47:39;10.10;;;7.40;;
17177;SDS011;8704;52.006;4.374;2023-04-15T03:50:07;13.50;;;6.85;;
17177;SDS011;8704;52.006;4.374;2023-04-15T03:52:36;15.70;;;7.25;;
17177;SDS011;8704;52.006;4.374;2023-04-15T03:55:04;9.52;;;7.07;;
17177;SDS011;8704;52.006;4.374;2023-04-15T03:57:33;11.70;;;7.32;;
17177;SDS011;8704;52.006;4.374;2023-04-15T04:00:04;10.70;;;7.50;;
17177;SDS011;8704;52.006;4.374;2023-04-15T04:02:35;9.27;;;7.38;;
17177;SDS011;8704;52.006;4.374;2023-04-15T04:05:04;11.02;;;7.50;;
17177;SDS011;8704;52.006;4.374;2023-04-15T04:07:32;11.38;;;7.93;;
17177;SDS011;8704;52.006;4.374;2023-04-15T04:10:01;11.68;;;7.40;;
17177;SDS011;8704;52.006;4.374;2023-04-15T04:12:29;13.10;;;7.40;;
17177;SDS011;8704;52.006;4.374;2023-04-15T04:14:57;9.77;;;7.30;;
17177;SDS011;8704;52.006;4.374;2023-04-15T04:17:25;10.10;;;7.35;;
17177;SDS011;8704;52.006;4.374;2023-04-15T04:19:55;11.20;;;6.90;;
17177;SDS011;8704;52.006;4.374;2023-04-15T04:22:23;10.07;;;7.25;;
17177;SDS011;8704;52.006;4.374;2023-04-15T04:24:51;13.05;;;7.68;;
17177;SDS011;8704;52.006;4.374;2023-04-15T04:27:19;11.85;;;7.25;;
17177;SDS011;8704;52.006;4.374;2023-04-15T04:29:47;10.25;;;7.53;;
17177;SDS011;8704;52.006;4.374;2023-04-15T04:32:15;9.70;;;7.35;;
17177;SDS011;8704;52.006;4.374;2023-04-15T04:34:43;11.75;;;7.75;;
17177;SDS011;8704;52.006;4.374;2023-04-15T04:37:12;12.27;;;7.85;;
17177;SDS011;8704;52.006;4.374;2023-04-15T04:39:40;12.77;;;7.82;;
17177;SDS011;8704;52.006;4.374;2023-04-15T04:42:08;11.32;;;8.57;;
17177;SDS011;8704;52.006;4.374;2023-04-15T04:44:36;10.07;;;7.50;;
17177;SDS011;8704;52.006;4.374;2023-04-15T04:47:04;10.45;;;8.38;;
17177;SDS011;8704;52.006;4.374;2023-04-15T04:49:32;12.43;;;7.88;;
17177;SDS011;8704;52.006;4.374;2023-04-15T04:52:00;10.02;;;7.85;;
17177;SDS011;8704;52.006;4.374;2023-04-15T04:54:30;14.10;;;8.82;;
17177;SDS011;8704;52.006;4.374;2023-04-15T04:56:58;12.82;;;8.43;;
17177;SDS011;8704;52.006;4.374;2023-04-15T04:59:26;10.15;;;8.13;;
17177;SDS011;8704;52.006;4.374;2023-04-15T05:01:54;10.90;;;8.18;;
17177;SDS011;8704;52.006;4.374;2023-04-15T05:04:22;11.93;;;8.88;;
17177;SDS011;8704;52.006;4.374;2023-04-15T05:06:51;10.18;;;8.40;;
17177;SDS011;8704;52.006;4.374;2023-04-15T05:09:19;10.07;;;8.27;;
17177;SDS011;8704;52.006;4.374;2023-04-15T05:11:48;11.25;;;8.32;;
17177;SDS011;8704;52.006;4.374;2023-04-15T05:14:16;12.60;;;9.40;;
17177;SDS011;8704;52.006;4.374;2023-04-15T05:16:46;12.10;;;8.80;;
17177;SDS011;8704;52.006;4.374;2023-04-15T05:19:14;13.45;;;8.57;;
17177;SDS011;8704;52.006;4.374;2023-04-15T05:21:41;11.32;;;8.57;;
17177;SDS011;8704;52.006;4.374;2023-04-15T05:24:09;13.85;;;8.82;;
17177;SDS011;8704;52.006;4.374;2023-04-15T05:26:38;12.98;;;9.35;;
17177;SDS011;8704;52.006;4.374;2023-04-15T05:29:09;14.90;;;8.23;;
17177;SDS011;8704;52.006;4.374;2023-04-15T05:31:37;15.13;;;8.70;;
17177;SDS011;8704;52.006;4.374;2023-04-15T05:34:05;10.65;;;8.75;;
17177;SDS011;8704;52.006;4.374;2023-04-15T05:36:33;11.38;;;8.27;;
17177;SDS011;8704;52.006;4.374;2023-04-15T05:39:01;11.85;;;8.80;;
17177;SDS011;8704;52.006;4.374;2023-04-15T05:41:29;12.40;;;9.10;;
17177;SDS011;8704;52.006;4.374;2023-04-15T05:43:57;12.00;;;8.18;;
17177;SDS011;8704;52.006;4.374;2023-04-15T05:46:27;12.10;;;8.77;;
17177;SDS011;8704;52.006;4.374;2023-04-15T05:48:55;12.05;;;8.93;;
17177;SDS011;8704;52.006;4.374;2023-04-15T05:51:23;16.15;;;9.77;;
17177;SDS011;8704;52.006;4.374;2023-04-15T05:53:51;10.80;;;8.52;;
17177;SDS011;8704;52.006;4.374;2023-04-15T05:56:19;12.93;;;9.27;;
17177;SDS011;8704;52.006;4.374;2023-04-15T05:58:47;11.13;;;9.10;;
17177;SDS011;8704;52.006;4.374;2023-04-15T06:01:18;12.63;;;9.63;;
17177;SDS011;8704;52.006;4.374;2023-04-15T06:03:48;13.02;;;9.20;;
17177;SDS011;8704;52.006;4.374;2023-04-15T06:06:17;13.52;;;9.13;;
17177;SDS011;8704;52.006;4.374;2023-04-15T06:08:45;11.98;;;9.25;;
17177;SDS011;8704;52.006;4.374;2023-04-15T06:11:13;15.13;;;9.50;;
17177;SDS011;8704;52.006;4.374;2023-04-15T06:13:42;12.52;;;9.65;;
17177;SDS011;8704;52.006;4.374;2023-04-15T06:16:10;12.20;;;9.18;;
17177;SDS011;8704;52.006;4.374;2023-04-15T06:18:38;12.05;;;8.65;;
17177;SDS011;8704;52.006;4.374;2023-04-15T06:21:08;12.70;;;9.30;;
17177;SDS011;8704;52.006;4.374;2023-04-15T06:23:36;12.52;;;9.57;;
17177;SDS011;8704;52.006;4.374;2023-04-15T06:26:06;12.45;;;9.25;;
17177;SDS011;8704;52.006;4.374;2023-04-15T06:28:34;14.30;;;9.88;;
17177;SDS011;8704;52.006;4.374;2023-04-15T06:31:02;11.40;;;9.55;;
17177;SDS011;8704;52.006;4.374;2023-04-15T06:33:30;11.93;;;9.32;;
17177;SDS011;8704;52.006;4.374;2023-04-15T06:35:58;11.93;;;10.25;;
17177;SDS011;8704;52.006;4.374;2023-04-15T06:38:29;13.20;;;10.10;;
17177;SDS011;8704;52.006;4.374;2023-04-15T06:40:56;12.80;;;9.93;;
17177;SDS011;8704;52.006;4.374;2023-04-15T06:43:25;14.55;;;9.73;;
17177;SDS011;8704;52.006;4.374;2023-04-15T06:45:53;14.52;;;9.93;;
17177;SDS011;8704;52.006;4.374;2023-04-15T06:48:21;13.95;;;10.48;;
17177;SDS011;8704;52.006;4.374;2023-04-15T06:50:50;12.85;;;10.15;;
17177;SDS011;8704;52.006;4.374;2023-04-15T06:53:18;15.63;;;9.98;;
17177;SDS011;8704;52.006;4.374;2023-04-15T06:55:48;11.20;;;9.43;;
17177;SDS011;8704;52.006;4.374;2023-04-15T06:58:16;11.60;;;9.52;;
17177;SDS011;8704;52.006;4.374;2023-04-15T07:00:44;15.50;;;10.32;;
17177;SDS011;8704;52.006;4.374;2023-04-15T07:03:14;11.25;;;9.68;;
17177;SDS011;8704;52.006;4.374;2023-04-15T07:05:42;11.82;;;8.95;;
17177;SDS011;8704;52.006;4.374;2023-04-15T07:08:10;14.55;;;9.85;;
17177;SDS011;8704;52.006;4.374;2023-04-15T07:10:38;14.98;;;10.38;;
17177;SDS011;8704;52.006;4.374;2023-04-15T07:13:08;12.35;;;9.82;;
17177;SDS011;8704;52.006;4.374;2023-04-15T07:15:36;12.60;;;10.15;;
17177;SDS011;8704;52.006;4.374;2023-04-15T07:18:04;12.68;;;9.50;;
17177;SDS011;8704;52.006;4.374;2023-04-15T07:20:32;14.63;;;9.75;;
17177;SDS011;8704;52.006;4.374;2023-04-15T07:23:00;11.48;;;8.98;;
17177;SDS011;8704;52.006;4.374;2023-04-15T07:25:28;13.52;;;9.40;;
17177;SDS011;8704;52.006;4.374;2023-04-15T07:27:56;14.20;;;9.20;;
17177;SDS011;8704;52.006;4.374;2023-04-15T07:30:26;16.17;;;9.27;;
17177;SDS011;8704;52.006;4.374;2023-04-15T07:32:54;14.23;;;9.65;;
17177;SDS011;8704;52.006;4.374;2023-04-15T07:35:22;11.57;;;8.98;;
17177;SDS011;8704;52.006;4.374;2023-04-15T07:37:51;12.07;;;9.55;;
17177;SDS011;8704;52.006;4.374;2023-04-15T07:40:19;12.50;;;8.25;;
17177;SDS011;8704;52.006;4.374;2023-04-15T07:42:47;12.88;;;9.32;;
17177;SDS011;8704;52.006;4.374;2023-04-15T07:45:16;10.75;;;9.20;;
17177;SDS011;8704;52.006;4.374;2023-04-15T07:47:45;12.43;;;9.50;;
17177;SDS011;8704;52.006;4.374;2023-04-15T07:50:13;10.18;;;8.98;;
17177;SDS011;8704;52.006;4.374;2023-04-15T07:52:42;10.57;;;8.40;;
17177;SDS011;8704;52.006;4.374;2023-04-15T07:55:10;13.00;;;8.95;;
17177;SDS011;8704;52.006;4.374;2023-04-15T07:57:38;11.77;;;8.30;;
17177;SDS011;8704;52.006;4.374;2023-04-15T08:00:07;9.77;;;8.43;;
17177;SDS011;8704;52.006;4.374;2023-04-15T08:02:36;11.68;;;8.88;;
17177;SDS011;8704;52.006;4.374;2023-04-15T08:05:07;11.10;;;9.07;;
17177;SDS011;8704;52.006;4.374;2023-04-15T08:07:36;12.38;;;8.60;;
17177;SDS011;8704;52.006;4.374;2023-04-15T08:10:05;10.45;;;8.63;;
17177;SDS011;8704;52.006;4.374;2023-04-15T08:12:33;10.70;;;8.38;;
17177;SDS011;8704;52.006;4.374;2023-04-15T08:15:02;10.05;;;8.32;;
17177;SDS011;8704;52.006;4.374;2023-04-15T08:17:31;11.27;;;8.57;;
17177;SDS011;8704;52.006;4.374;2023-04-15T08:19:59;11.32;;;8.32;;
17177;SDS011;8704;52.006;4.374;2023-04-15T08:22:28;9.88;;;8.40;;
17177;SDS011;8704;52.006;4.374;2023-04-15T08:24:56;10.65;;;8.43;;
17177;SDS011;8704;52.006;4.374;2023-04-15T08:27:24;13.27;;;9.63;;
17177;SDS011;8704;52.006;4.374;2023-04-15T08:29:52;13.95;;;9.30;;
17177;SDS011;8704;52.006;4.374;2023-04-15T08:32:20;12.15;;;8.57;;
17177;SDS011;8704;52.006;4.374;2023-04-15T08:34:48;11.48;;;9.18;;
17177;SDS011;8704;52.006;4.374;2023-04-15T08:37:16;10.93;;;9.63;;
17177;SDS011;8704;52.006;4.374;2023-04-15T08:39:46;11.65;;;9.45;;
17177;SDS011;8704;52.006;4.374;2023-04-15T08:42:15;11.52;;;9.32;;
17177;SDS011;8704;52.006;4.374;2023-04-15T08:44:44;13.30;;;9.50;;
17177;SDS011;8704;52.006;4.374;2023-04-15T08:47:14;11.68;;;9.20;;
17177;SDS011;8704;52.006;4.374;2023-04-15T08:49:46;12.77;;;9.05;;
17177;SDS011;8704;52.006;4.374;2023-04-15T08:52:19;11.32;;;8.75;;
17177;SDS011;8704;52.006;4.374;2023-04-15T08:54:49;11.80;;;8.73;;
17177;SDS011;8704;52.006;4.374;2023-04-15T08:57:17;11.07;;;8.80;;
17177;SDS011;8704;52.006;4.374;2023-04-15T08:59:46;11.27;;;8.32;;
17177;SDS011;8704;52.006;4.374;2023-04-15T09:02:14;12.60;;;8.52;;
17177;SDS011;8704;52.006;4.374;2023-04-15T09:04:43;13.07;;;9.60;;
17177;SDS011;8704;52.006;4.374;2023-04-15T09:07:11;11.40;;;9.05;;
17177;SDS011;8704;52.006;4.374;2023-04-15T09:09:39;13.43;;;9.43;;
17177;SDS011;8704;52.006;4.374;2023-04-15T09:12:10;10.43;;;8.65;;
17177;SDS011;8704;52.006;4.374;2023-04-15T09:14:39;12.95;;;9.10;;
17177;SDS011;8704;52.006;4.374;2023-04-15T09:17:09;11.25;;;8.63;;
17177;SDS011;8704;52.006;4.374;2023-04-15T09:19:37;12.65;;;7.97;;
17177;SDS011;8704;52.006;4.374;2023-04-15T09:22:05;9.35;;;8.02;;
17177;SDS011;8704;52.006;4.374;2023-04-15T09:24:34;8.43;;;7.13;;
17177;SDS011;8704;52.006;4.374;2023-04-15T09:27:04;8.65;;;6.93;;
17177;SDS011;8704;52.006;4.374;2023-04-15T09:29:34;9.23;;;6.63;;
17177;SDS011;8704;52.006;4.374;2023-04-15T09:32:08;10.95;;;6.90;;
17177;SDS011;8704;52.006;4.374;2023-04-15T09:34:37;8.32;;;6.88;;
17177;SDS011;8704;52.006;4.374;2023-04-15T09:37:05;11.70;;;6.93;;
17177;SDS011;8704;52.006;4.374;2023-04-15T09:39:45;11.27;;;7.10;;
17177;SDS011;8704;52.006;4.374;2023-04-15T09:42:15;9.20;;;6.15;;
17177;SDS011;8704;52.006;4.374;2023-04-15T09:44:50;9.30;;;6.88;;
17177;SDS011;8704;52.006;4.374;2023-04-15T09:47:28;10.35;;;5.78;;
17177;SDS011;8704;52.006;4.374;2023-04-15T09:49:56;8.85;;;5.53;;
17177;SDS011;8704;52.006;4.374;2023-04-15T09:52:25;7.60;;;5.47;;
17177;SDS011;8704;52.006;4.374;2023-04-15T09:54:54;9.27;;;5.78;;
17177;SDS011;8704;52.006;4.374;2023-04-15T09:57:23;7.82;;;5.25;;
17177;SDS011;8704;52.006;4.374;2023-04-15T09:59:53;7.90;;;5.53;;
17177;SDS011;8704;52.006;4.374;2023-04-15T10:02:21;7.05;;;5.10;;
17177;SDS011;8704;52.006;4.374;2023-04-15T10:04:49;9.13;;;5.95;;
17177;SDS011;8704;52.006;4.374;2023-04-15T10:07:19;9.02;;;6.00;;
17177;SDS011;8704;52.006;4.374;2023-04-15T10:09:48;9.00;;;5.95;;
17177;SDS011;8704;52.006;4.374;2023-04-15T10:12:17;7.72;;;4.57;;
17177;SDS011;8704;52.006;4.374;2023-04-15T10:14:47;6.55;;;4.25;;
17177;SDS011;8704;52.006;4.374;2023-04-15T10:17:24;6.97;;;4.95;;
17177;SDS011;8704;52.006;4.374;2023-04-15T10:19:56;5.78;;;4.40;;
17177;SDS011;8704;52.006;4.374;2023-04-15T10:22:28;7.25;;;4.88;;
17177;SDS011;8704;52.006;4.374;2023-04-15T10:24:56;5.85;;;4.20;;
17177;SDS011;8704;52.006;4.374;2023-04-15T10:27:26;6.53;;;3.63;;
17177;SDS011;8704;52.006;4.374;2023-04-15T10:29:55;7.20;;;3.80;;
17177;SDS011;8704;52.006;4.374;2023-04-15T10:32:24;7.72;;;4.10;;
17177;SDS011;8704;52.006;4.374;2023-04-15T10:34:53;6.43;;;3.70;;
17177;SDS011;8704;52.006;4.374;2023-04-15T10:37:24;8.43;;;4.13;;
17177;SDS011;8704;52.006;4.374;2023-04-15T10:40:12;4.03;;;2.83;;
17177;SDS011;8704;52.006;4.374;2023-04-15T10:42:52;6.50;;;3.38;;
17177;SDS011;8704;52.006;4.374;2023-04-15T10:45:21;4.28;;;3.00;;
17177;SDS011;8704;52.006;4.374;2023-04-15T10:47:57;5.03;;;2.90;;
17177;SDS011;8704;52.006;4.374;2023-04-15T10:50:30;5.78;;;2.67;;
17177;SDS011;8704;52.006;4.374;2023-04-15T10:52:58;6.07;;;3.35;;
17177;SDS011;8704;52.006;4.374;2023-04-15T10:55:30;4.45;;;2.90;;
17177;SDS011;8704;52.006;4.374;2023-04-15T10:58:00;6.57;;;3.15;;
17177;SDS011;8704;52.006;4.374;2023-04-15T11:00:28;5.82;;;2.72;;
17177;SDS011;8704;52.006;4.374;2023-04-15T11:03:04;5.57;;;2.90;;
17177;SDS011;8704;52.006;4.374;2023-04-15T11:05:48;5.72;;;3.60;;
17177;SDS011;8704;52.006;4.374;2023-04-15T11:08:17;4.05;;;2.90;;
17177;SDS011;8704;52.006;4.374;2023-04-15T11:10:49;6.75;;;3.33;;
17177;SDS011;8704;52.006;4.374;2023-04-15T11:13:25;5.38;;;3.00;;
17177;SDS011;8704;52.006;4.374;2023-04-15T11:15:55;8.57;;;3.42;;
17177;SDS011;8704;52.006;4.374;2023-04-15T11:18:30;5.45;;;3.60;;
17177;SDS011;8704;52.006;4.374;2023-04-15T11:21:03;6.23;;;3.40;;
17177;SDS011;8704;52.006;4.374;2023-04-15T11:23:33;6.10;;;4.03;;
17177;SDS011;8704;52.006;4.374;2023-04-15T11:26:04;7.80;;;4.05;;
17177;SDS011;8704;52.006;4.374;2023-04-15T11:28:35;7.68;;;3.70;;
17177;SDS011;8704;52.006;4.374;2023-04-15T11:31:06;5.72;;;3.47;;
17177;SDS011;8704;52.006;4.374;2023-04-15T11:33:37;5.80;;;3.05;;
17177;SDS011;8704;52.006;4.374;2023-04-15T11:36:11;6.32;;;2.75;;
17177;SDS011;8704;52.006;4.374;2023-04-15T11:38:43;4.97;;;2.90;;
17177;SDS011;8704;52.006;4.374;2023-04-15T11:41:12;5.95;;;3.03;;
17177;SDS011;8704;52.006;4.374;2023-04-15T11:43:41;5.05;;;2.75;;
17177;SDS011;8704;52.006;4.374;2023-04-15T11:46:09;5.38;;;2.50;;
17177;SDS011;8704;52.006;4.374;2023-04-15T11:48:40;4.45;;;2.40;;
17177;SDS011;8704;52.006;4.374;2023-04-15T11:51:10;4.97;;;2.72;;
17177;SDS011;8704;52.006;4.374;2023-04-15T11:53:40;5.68;;;2.90;;
17177;SDS011;8704;52.006;4.374;2023-04-15T11:56:10;6.13;;;3.45;;
17177;SDS011;8704;52.006;4.374;2023-04-15T11:58:44;6.43;;;3.40;;
17177;SDS011;8704;52.006;4.374;2023-04-15T12:01:12;6.03;;;3.58;;
17177;SDS011;8704;52.006;4.374;2023-04-15T12:03:42;10.25;;;3.60;;
17177;SDS011;8704;52.006;4.374;2023-04-15T12:06:14;7.85;;;3.85;;
17177;SDS011;8704;52.006;4.374;2023-04-15T12:11:38;6.38;;;3.40;;
17177;SDS011;8704;52.006;4.374;2023-04-15T12:14:09;6.10;;;3.60;;
17177;SDS011;8704;52.006;4.374;2023-04-15T12:16:48;6.38;;;3.80;;
17177;SDS011;8704;52.006;4.374;2023-04-15T12:19:23;7.15;;;3.60;;
17177;SDS011;8704;52.006;4.374;2023-04-15T12:21:53;8.18;;;4.15;;
17177;SDS011;8704;52.006;4.374;2023-04-15T12:24:26;7.03;;;3.50;;
17177;SDS011;8704;52.006;4.374;2023-04-15T12:26:54;5.28;;;3.45;;
17177;SDS011;8704;52.006;4.374;2023-04-15T12:29:24;9.02;;;3.47;;
17177;SDS011;8704;52.006;4.374;2023-04-15T12:31:54;7.65;;;3.50;;
17177;SDS011;8704;52.006;4.374;2023-04-15T12:34:27;6.72;;;3.65;;
17177;SDS011;8704;52.006;4.374;2023-04-15T12:36:57;7.00;;;3.70;;
17177;SDS011;8704;52.006;4.374;2023-04-15T12:39:27;7.15;;;3.67;;
17177;SDS011;8704;52.006;4.374;2023-04-15T12:41:58;4.90;;;3.03;;
17177;SDS011;8704;52.006;4.374;2023-04-15T12:44:27;7.03;;;3.40;;
17177;SDS011;8704;52.006;4.374;2023-04-15T12:46:55;7.22;;;3.85;;
17177;SDS011;8704;52.006;4.374;2023-04-15T12:49:24;6.13;;;3.72;;
17177;SDS011;8704;52.006;4.374;2023-04-15T12:51:55;8.30;;;3.85;;
17177;SDS011;8704;52.006;4.374;2023-04-15T12:54:24;5.47;;;3.22;;
17177;SDS011;8704;52.006;4.374;2023-04-15T12:56:53;6.43;;;3.65;;
17177;SDS011;8704;52.006;4.374;2023-04-15T12:59:21;7.50;;;3.45;;
17177;SDS011;8704;52.006;4.374;2023-04-15T13:01:50;5.80;;;3.42;;
17177;SDS011;8704;52.006;4.374;2023-04-15T13:04:19;5.82;;;3.20;;
17177;SDS011;8704;52.006;4.374;2023-04-15T13:06:48;6.60;;;3.08;;
17177;SDS011;8704;52.006;4.374;2023-04-15T13:09:17;5.95;;;2.72;;
17177;SDS011;8704;52.006;4.374;2023-04-15T13:11:45;5.72;;;2.58;;
17177;SDS011;8704;52.006;4.374;2023-04-15T13:14:13;7.03;;;2.50;;
17177;SDS011;8704;52.006;4.374;2023-04-15T13:16:42;3.70;;;2.20;;
17177;SDS011;8704;52.006;4.374;2023-04-15T13:19:10;6.95;;;2.95;;
17177;SDS011;8704;52.006;4.374;2023-04-15T13:21:38;8.23;;;5.50;;
17177;SDS011;8704;52.006;4.374;2023-04-15T13:24:06;10.00;;;4.65;;
17177;SDS011;8704;52.006;4.374;2023-04-15T13:26:36;8.52;;;3.50;;
17177;SDS011;8704;52.006;4.374;2023-04-15T13:29:04;4.55;;;2.15;;
17177;SDS011;8704;52.006;4.374;2023-04-15T13:31:32;4.82;;;1.95;;
17177;SDS011;8704;52.006;4.374;2023-04-15T13:34:00;6.65;;;2.55;;
17177;SDS011;8704;52.006;4.374;2023-04-15T13:36:29;7.72;;;2.50;;
17177;SDS011;8704;52.006;4.374;2023-04-15T13:38:57;7.28;;;2.42;;
17177;SDS011;8704;52.006;4.374;2023-04-15T13:41:25;6.57;;;2.65;;
17177;SDS011;8704;52.006;4.374;2023-04-15T13:43:54;7.63;;;2.85;;
17177;SDS011;8704;52.006;4.374;2023-04-15T13:46:23;5.78;;;2.92;;
17177;SDS011;8704;52.006;4.374;2023-04-15T13:48:51;6.43;;;2.70;;
17177;SDS011;8704;52.006;4.374;2023-04-15T13:51:20;5.15;;;2.25;;
17177;SDS011;8704;52.006;4.374;2023-04-15T13:53:48;6.13;;;2.45;;
17177;SDS011;8704;52.006;4.374;2023-04-15T13:56:16;6.85;;;2.83;;
17177;SDS011;8704;52.006;4.374;2023-04-15T13:58:43;5.70;;;2.53;;
17177;SDS011;8704;52.006;4.374;2023-04-15T14:01:13;6.72;;;2.55;;
17177;SDS011;8704;52.006;4.374;2023-04-15T14:03:41;5.28;;;2.13;;
17177;SDS011;8704;52.006;4.374;2023-04-15T14:06:09;5.80;;;2.78;;
17177;SDS011;8704;52.006;4.374;2023-04-15T14:08:37;7.32;;;2.40;;
17177;SDS011;8704;52.006;4.374;2023-04-15T14:11:05;7.18;;;2.67;;
17177;SDS011;8704;52.006;4.374;2023-04-15T14:13:34;4.68;;;2.20;;
17177;SDS011;8704;52.006;4.374;2023-04-15T14:16:02;9.20;;;3.03;;
17177;SDS011;8704;52.006;4.374;2023-04-15T14:18:33;7.07;;;2.60;;
17177;SDS011;8704;52.006;4.374;2023-04-15T14:21:04;5.77;;;2.30;;
17177;SDS011;8704;52.006;4.374;2023-04-15T14:23:32;5.28;;;2.47;;
17177;SDS011;8704;52.006;4.374;2023-04-15T14:26:00;5.80;;;2.15;;
17177;SDS011;8704;52.006;4.374;2023-04-15T14:28:28;8.95;;;2.40;;
17177;SDS011;8704;52.006;4.374;2023-04-15T14:30:57;6.70;;;2.38;;
17177;SDS011;8704;52.006;4.374;2023-04-15T14:33:25;6.78;;;2.03;;
17177;SDS011;8704;52.006;4.374;2023-04-15T14:35:55;10.13;;;2.75;;
17177;SDS011;8704;52.006;4.374;2023-04-15T14:38:23;7.05;;;2.30;;
17177;SDS011;8704;52.006;4.374;2023-04-15T14:40:51;6.57;;;2.17;;
17177;SDS011;8704;52.006;4.374;2023-04-15T14:43:19;6.03;;;2.55;;
17177;SDS011;8704;52.006;4.374;2023-04-15T14:45:47;6.93;;;2.42;;
17177;SDS011;8704;52.006;4.374;2023-04-15T14:48:16;6.63;;;2.85;;
17177;SDS011;8704;52.006;4.374;2023-04-15T14:50:44;7.30;;;2.60;;
17177;SDS011;8704;52.006;4.374;2023-04-15T14:53:14;8.70;;;2.50;;
17177;SDS011;8704;52.006;4.374;2023-04-15T14:55:42;7.57;;;2.50;;
17177;SDS011;8704;52.006;4.374;2023-04-15T14:58:10;7.82;;;2.83;;
17177;SDS011;8704;52.006;4.374;2023-04-15T15:00:38;8.18;;;2.85;;
17177;SDS011;8704;52.006;4.374;2023-04-15T15:03:09;6.73;;;2.57;;
17177;SDS011;8704;52.006;4.374;2023-04-15T15:05:39;10.77;;;2.70;;
17177;SDS011;8704;52.006;4.374;2023-04-15T15:08:08;6.32;;;2.47;;